Metar GG30 METAR message from awiacja.imgw.pl Metar G30 EPLL METAR EPLL 181330Z 33007KT 260V040 CAVOK 17/04 Q1028 =